Back to Top

Language: 

My Weather Underground Personal Weather Station Historical Data with Graphs...

Delerius Weather Station Historical Data
Daily Summary for February 18, 2017 Units:  English    Metric   Both
« Previous Day
Next Day »
Daily Weekly Monthly Yearly Custom
  High: Low: Average:
Temperature: 55.1 °F 43.4 °F 48.8 °F
Dew Point: 48.4 °F 40.9 °F 44.8 °F
Humidity: 93 % 77 % 86 %
Wind Speed: 13.0 mph 0.0 mph 4 mph
Wind Gust: 18.0 mph - -
Wind:- - SSW
Pressure: 30.24 in 30.07 in -
Precipitation: 0.00 in    
Historical Graphs
 
 
Tabular Data for February 18, 2017
Time Temperature Dew Point Pressure Wind Wind Speed Wind Gust Humidity Rainfall Rate (Hourly) solar Conditions
00:00 48.6 °F 44.3 °F 30.24 in SW 1.0 mph 1.0 mph 85 % 0.00 in 0 W/m2
00:05 48.4 °F 44.1 °F 30.23 in Calm   1.0 mph 85 % 0.00 in 0 W/m2
00:15 48.1 °F 43.8 °F 30.23 in Calm     85 % 0.00 in 0 W/m2
00:20 48.0 °F 44.0 °F 30.23 in Calm   2.0 mph 86 % 0.00 in 0 W/m2
00:35 47.6 °F 43.9 °F 30.23 in South 1.0 mph 1.0 mph 87 % 0.00 in 0 W/m2
00:40 47.4 °F 43.7 °F 30.23 in Calm   1.0 mph 87 % 0.00 in 0 W/m2
00:45 47.3 °F 43.9 °F 30.23 in Calm   1.0 mph 88 % 0.00 in 0 W/m2
00:50 47.3 °F 43.9 °F 30.22 in Calm     88 % 0.00 in 0 W/m2
01:00 47.1 °F 43.7 °F 30.23 in Calm     88 % 0.00 in 0 W/m2
01:10 47.1 °F 44.0 °F 30.23 in Calm   6.0 mph 89 % 0.00 in 0 W/m2
01:15 47.1 °F 44.0 °F 30.22 in Calm   6.0 mph 89 % 0.00 in 0 W/m2
01:25 47.1 °F 44.0 °F 30.22 in Calm   6.0 mph 89 % 0.00 in 0 W/m2
01:30 47.0 °F 43.9 °F 30.22 in Calm   6.0 mph 89 % 0.00 in 0 W/m2
01:35 47.0 °F 43.9 °F 30.22 in Calm   6.0 mph 89 % 0.00 in 0 W/m2
01:40 47.0 °F 43.9 °F 30.22 in Calm   6.0 mph 89 % 0.00 in 0 W/m2
01:50 46.9 °F 43.8 °F 30.22 in Calm   6.0 mph 89 % 0.00 in 0 W/m2
01:55 46.9 °F 43.8 °F 30.22 in Calm   6.0 mph 89 % 0.00 in 0 W/m2
02:05 46.6 °F 43.5 °F 30.21 in Calm   6.0 mph 89 % 0.00 in 0 W/m2
02:10 46.5 °F 43.7 °F 30.21 in Calm   6.0 mph 90 % 0.00 in 0 W/m2
02:20 46.2 °F 43.4 °F 30.21 in South 1.0 mph 1.0 mph 90 % 0.00 in 0 W/m2
02:25 46.1 °F 43.3 °F 30.21 in South 1.0 mph 6.0 mph 90 % 0.00 in 0 W/m2
02:30 46.1 °F 43.6 °F 30.21 in Calm   6.0 mph 91 % 0.00 in 0 W/m2
02:35 46.1 °F 43.6 °F 30.21 in Calm   6.0 mph 91 % 0.00 in 0 W/m2
02:45 46.0 °F 43.5 °F 30.21 in South 1.0 mph 6.0 mph 91 % 0.00 in 0 W/m2
02:50 46.0 °F 43.5 °F 30.21 in South 1.0 mph 1.0 mph 91 % 0.00 in 0 W/m2
02:55 45.9 °F 43.4 °F 30.21 in Calm   6.0 mph 91 % 0.00 in 0 W/m2
03:05 45.7 °F 43.2 °F 30.20 in Calm   6.0 mph 91 % 0.00 in 0 W/m2
03:15 45.7 °F 43.5 °F 30.19 in South 1.0 mph 6.0 mph 92 % 0.00 in 0 W/m2
03:25 46.0 °F 43.5 °F 30.19 in Calm   6.0 mph 91 % 0.00 in 0 W/m2
03:30 46.1 °F 43.6 °F 30.19 in Calm   6.0 mph 91 % 0.00 in 0 W/m2
03:35 46.2 °F 43.7 °F 30.19 in Calm   6.0 mph 91 % 0.00 in 0 W/m2
03:45 46.2 °F 43.7 °F 30.19 in Calm   6.0 mph 91 % 0.00 in 0 W/m2
03:50 46.2 °F 43.7 °F 30.19 in Calm   6.0 mph 91 % 0.00 in 0 W/m2
03:55 46.1 °F 43.6 °F 30.18 in South 1.0 mph 6.0 mph 91 % 0.00 in 0 W/m2
04:00 45.9 °F 43.4 °F 30.18 in South 1.0 mph 6.0 mph 91 % 0.00 in 0 W/m2
04:10 45.7 °F 43.2 °F 30.18 in Calm   6.0 mph 91 % 0.00 in 0 W/m2
04:15 45.7 °F 43.2 °F 30.18 in Calm   6.0 mph 91 % 0.00 in 0 W/m2
04:20 45.7 °F 43.2 °F 30.18 in Calm   6.0 mph 91 % 0.00 in 0 W/m2
04:25 45.6 °F 42.8 °F 30.18 in Calm   6.0 mph 90 % 0.00 in 0 W/m2
04:30 45.5 °F 42.7 °F 30.18 in Calm   6.0 mph 90 % 0.00 in 0 W/m2
04:40 45.2 °F 42.4 °F 30.18 in Calm   6.0 mph 90 % 0.00 in 0 W/m2
04:45 45.0 °F 42.2 °F 30.19 in Calm   6.0 mph 90 % 0.00 in 0 W/m2
04:50 44.8 °F 42.0 °F 30.18 in Calm   6.0 mph 90 % 0.00 in 0 W/m2
04:55 44.6 °F 41.8 °F 30.18 in Calm   6.0 mph 90 % 0.00 in 0 W/m2
05:05 44.3 °F 41.8 °F 30.18 in South 1.0 mph 6.0 mph 91 % 0.00 in 0 W/m2
05:10 44.1 °F 41.6 °F 30.18 in Calm   6.0 mph 91 % 0.00 in 0 W/m2
05:15 43.9 °F 41.4 °F 30.18 in South 1.0 mph 6.0 mph 91 % 0.00 in 0 W/m2
05:20 43.8 °F 41.3 °F 30.18 in NE 1.0 mph 6.0 mph 91 % 0.00 in 0 W/m2
05:30 43.5 °F 41.0 °F 30.18 in NE 1.0 mph 6.0 mph 91 % 0.00 in 0 W/m2
05:35 43.4 °F 40.9 °F 30.18 in NE 2.0 mph 6.0 mph 91 % 0.00 in 0 W/m2
05:40 43.5 °F 41.3 °F 30.17 in NE 1.0 mph 1.0 mph 92 % 0.00 in 0 W/m2
05:45 43.5 °F 41.3 °F 30.18 in NE 1.0 mph 3.0 mph 92 % 0.00 in 0 W/m2
05:50 43.7 °F 41.5 °F 30.17 in West 2.0 mph 2.0 mph 92 % 0.00 in 0 W/m2
06:05 43.6 °F 41.1 °F 30.17 in East 1.0 mph 6.0 mph 91 % 0.00 in 0 W/m2
06:10 43.6 °F 41.1 °F 30.17 in Calm   6.0 mph 91 % 0.00 in 0 W/m2
06:15 43.6 °F 41.1 °F 30.17 in Calm   6.0 mph 91 % 0.00 in 0 W/m2
06:20 43.5 °F 41.0 °F 30.17 in East 1.0 mph 6.0 mph 91 % 0.00 in 0 W/m2
06:25 43.5 °F 41.3 °F 30.17 in East 1.0 mph 6.0 mph 92 % 0.00 in 0 W/m2
06:35 43.5 °F 41.3 °F 30.17 in East 1.0 mph 6.0 mph 92 % 0.00 in 0 W/m2
06:40 43.5 °F 41.3 °F 30.17 in East 1.0 mph 1.0 mph 92 % 0.00 in 0 W/m2
06:45 43.4 °F 41.2 °F 30.17 in Calm   6.0 mph 92 % 0.00 in 0 W/m2
06:50 43.5 °F 41.6 °F 30.17 in Calm   6.0 mph 93 % 0.00 in 0 W/m2
06:55 43.8 °F 41.6 °F 30.17 in West 1.0 mph 6.0 mph 92 % 0.00 in 0 W/m2
07:05 43.7 °F 41.5 °F 30.17 in Calm   6.0 mph 92 % 0.00 in 0 W/m2
07:10 43.7 °F 41.5 °F 30.17 in Calm   6.0 mph 92 % 0.00 in 0 W/m2
07:15 43.7 °F 41.5 °F 30.18 in NW 1.0 mph 6.0 mph 92 % 0.00 in 0 W/m2
07:20 43.5 °F 41.3 °F 30.18 in NW 2.0 mph 6.0 mph 92 % 0.00 in 5 W/m2
07:30 43.6 °F 41.4 °F 30.18 in NW 2.0 mph 2.0 mph 92 % 0.00 in 11 W/m2
07:40 43.9 °F 41.7 °F 30.18 in WSW 1.0 mph 1.0 mph 92 % 0.00 in 16 W/m2
07:45 44.0 °F 41.8 °F 30.18 in West 1.0 mph 6.0 mph 92 % 0.00 in 18 W/m2
07:50 44.1 °F 41.9 °F 30.18 in West 1.0 mph 6.0 mph 92 % 0.00 in 19 W/m2
08:00 44.3 °F 41.8 °F 30.18 in West 1.0 mph 1.0 mph 91 % 0.00 in 37 W/m2
08:05 44.4 °F 41.9 °F 30.18 in Calm   6.0 mph 91 % 0.00 in 44 W/m2
08:10 44.4 °F 41.9 °F 30.18 in Calm   6.0 mph 91 % 0.00 in 32 W/m2
08:20 44.3 °F 41.8 °F 30.18 in Calm   6.0 mph 91 % 0.00 in 35 W/m2
08:25 44.3 °F 41.8 °F 30.18 in Calm   6.0 mph 91 % 0.00 in 40 W/m2
08:30 44.4 °F 41.9 °F 30.18 in Calm   6.0 mph 91 % 0.00 in 76 W/m2
08:40 44.6 °F 42.1 °F 30.18 in Calm   6.0 mph 91 % 0.00 in 67 W/m2
08:45 44.8 °F 42.3 °F 30.18 in West 1.0 mph 6.0 mph 91 % 0.00 in 90 W/m2
08:50 44.9 °F 42.4 °F 30.18 in West 1.0 mph 1.0 mph 91 % 0.00 in 88 W/m2
08:55 45.1 °F 42.6 °F 30.18 in Calm   6.0 mph 91 % 0.00 in 81 W/m2
09:05 45.6 °F 43.1 °F 30.18 in West 1.0 mph 4.0 mph 91 % 0.00 in 86 W/m2
09:10 45.8 °F 43.3 °F 30.18 in West 1.0 mph 6.0 mph 91 % 0.00 in 86 W/m2
09:15 46.1 °F 43.3 °F 30.18 in West 2.0 mph 6.0 mph 90 % 0.00 in 98 W/m2
09:20 46.3 °F 43.5 °F 30.18 in West 1.0 mph 1.0 mph 90 % 0.00 in 121 W/m2
09:25 46.6 °F 43.8 °F 30.18 in West 1.0 mph 3.0 mph 90 % 0.00 in 128 W/m2
09:30 46.9 °F 44.1 °F 30.18 in West 2.0 mph 2.0 mph 90 % 0.00 in 118 W/m2
09:40 47.6 °F 44.5 °F 30.18 in SW 2.0 mph 6.0 mph 89 % 0.00 in 107 W/m2
09:45 48.1 °F 44.7 °F 30.19 in SSW 4.0 mph 6.0 mph 88 % 0.00 in 84 W/m2
09:50 48.4 °F 44.7 °F 30.19 in SW 4.0 mph 4.0 mph 87 % 0.00 in 84 W/m2
09:55 48.6 °F 44.9 °F 30.19 in SSW 3.0 mph 6.0 mph 87 % 0.00 in 100 W/m2
10:00 48.8 °F 44.8 °F 30.19 in SSW 3.0 mph 6.0 mph 86 % 0.00 in 104 W/m2
10:10 49.2 °F 45.2 °F 30.19 in South 4.0 mph 6.0 mph 86 % 0.00 in 121 W/m2
10:15 49.4 °F 45.1 °F 30.18 in SSW 4.0 mph 6.0 mph 85 % 0.00 in 130 W/m2
10:20 49.7 °F 45.4 °F 30.19 in SSW 3.0 mph 7.0 mph 85 % 0.00 in 128 W/m2
10:25 49.9 °F 45.6 °F 30.19 in SW 3.0 mph 7.0 mph 85 % 0.00 in 116 W/m2
10:35 50.2 °F 45.6 °F 30.19 in SW 4.0 mph 6.0 mph 84 % 0.00 in 88 W/m2
10:40 50.3 °F 45.6 °F 30.19 in SSW 3.0 mph 6.0 mph 84 % 0.00 in 84 W/m2
10:45 50.4 °F 45.7 °F 30.19 in SSW 3.0 mph 6.0 mph 84 % 0.00 in 97 W/m2
10:50 50.5 °F 45.8 °F 30.19 in SSW 2.0 mph 2.0 mph 84 % 0.00 in 98 W/m2
11:00 50.6 °F 45.9 °F 30.18 in SSW 1.0 mph 6.0 mph 84 % 0.00 in 107 W/m2
11:05 50.7 °F 46.0 °F 30.18 in SSW 1.0 mph 6.0 mph 84 % 0.00 in 105 W/m2
11:10 50.7 °F 45.7 °F 30.18 in SSW 1.0 mph 1.0 mph 83 % 0.00 in 104 W/m2
11:15 50.8 °F 45.8 °F 30.18 in Calm   6.0 mph 83 % 0.00 in 121 W/m2
11:20 51.0 °F 46.0 °F 30.18 in Calm   6.0 mph 83 % 0.00 in 121 W/m2
11:30 51.5 °F 46.5 °F 30.18 in Calm   6.0 mph 83 % 0.00 in 135 W/m2
11:40 51.8 °F 46.5 °F 30.18 in SE 3.0 mph 6.0 mph 82 % 0.00 in 186 W/m2
11:45 51.9 °F 46.6 °F 30.18 in ESE 4.0 mph 6.0 mph 82 % 0.00 in 178 W/m2
11:50 52.1 °F 46.8 °F 30.18 in ESE 3.0 mph 6.0 mph 82 % 0.00 in 179 W/m2
11:55 52.2 °F 46.9 °F 30.17 in ESE 3.0 mph 6.0 mph 82 % 0.00 in 178 W/m2
12:05 52.6 °F 46.9 °F 30.17 in SSW 4.0 mph 4.0 mph 81 % 0.00 in 127 W/m2
12:10 52.7 °F 46.7 °F 30.16 in South 6.0 mph 13.0 mph 80 % 0.00 in 127 W/m2
12:15 52.6 °F 46.6 °F 30.16 in South 7.0 mph 13.0 mph 80 % 0.00 in 132 W/m2
12:25 52.6 °F 46.9 °F 30.16 in SSW 6.0 mph 7.0 mph 81 % 0.00 in 192 W/m2
12:30 52.7 °F 47.0 °F 30.16 in South 6.0 mph 6.0 mph 81 % 0.00 in 221 W/m2
12:35 52.7 °F 47.0 °F 30.15 in SSW 7.0 mph 7.0 mph 81 % 0.00 in 206 W/m2
12:40 52.7 °F 47.0 °F 30.15 in South 6.0 mph 6.0 mph 81 % 0.00 in 209 W/m2
12:50 52.8 °F 47.1 °F 30.14 in SSW 6.0 mph 6.0 mph 81 % 0.00 in 234 W/m2
12:55 53.1 °F 47.4 °F 30.14 in SW 6.0 mph 6.0 mph 81 % 0.00 in 155 W/m2
13:00 53.3 °F 47.3 °F 30.14 in SW 6.0 mph 6.0 mph 80 % 0.00 in 149 W/m2
13:05 53.6 °F 47.6 °F 30.14 in SW 6.0 mph 8.0 mph 80 % 0.00 in 148 W/m2
13:15 53.8 °F 47.8 °F 30.14 in SSW 6.0 mph 7.0 mph 80 % 0.00 in 188 W/m2
13:20 54.0 °F 47.6 °F 30.14 in SSW 6.0 mph 6.0 mph 79 % 0.00 in 183 W/m2
13:25 54.1 °F 47.7 °F 30.14 in SSW 6.0 mph 6.0 mph 79 % 0.00 in 209 W/m2
13:30 54.3 °F 47.9 °F 30.14 in SW 6.0 mph 6.0 mph 79 % 0.00 in 299 W/m2
13:40 55.0 °F 48.3 °F 30.13 in SSW 8.0 mph 11.0 mph 78 % 0.00 in 279 W/m2
13:50 55.1 °F 48.4 °F 30.13 in SW 7.0 mph 7.0 mph 78 % 0.00 in 207 W/m2
13:55 54.9 °F 47.8 °F 30.12 in SW 7.0 mph 15.0 mph 77 % 0.00 in 188 W/m2
14:00 54.5 °F 47.8 °F 30.12 in WSW 9.0 mph 9.0 mph 78 % 0.00 in 188 W/m2
14:10 54.3 °F 47.6 °F 30.12 in SSW 9.0 mph 9.0 mph 78 % 0.00 in 322 W/m2
14:15 54.5 °F 48.1 °F 30.11 in SSW 9.0 mph 11.0 mph 79 % 0.00 in 246 W/m2
14:20 54.3 °F 47.6 °F 30.11 in South 8.0 mph 9.0 mph 78 % 0.00 in 186 W/m2
14:25 54.0 °F 47.3 °F 30.11 in South 8.0 mph 11.0 mph 78 % 0.00 in 179 W/m2
14:35 53.7 °F 47.3 °F 30.11 in SSE 8.0 mph 9.0 mph 79 % 0.00 in 186 W/m2
14:40 53.9 °F 47.5 °F 30.10 in South 8.0 mph 10.0 mph 79 % 0.00 in 417 W/m2
14:45 54.2 °F 47.5 °F 30.10 in South 9.0 mph 12.0 mph 78 % 0.00 in 269 W/m2
14:50 54.5 °F 47.4 °F 30.11 in SSW 9.0 mph 9.0 mph 77 % 0.00 in 123 W/m2
14:55 54.2 °F 47.1 °F 30.10 in SSE 8.0 mph 9.0 mph 77 % 0.00 in 123 W/m2
15:05 53.7 °F 47.0 °F 30.11 in SSE 8.0 mph 13.0 mph 78 % 0.00 in 123 W/m2
15:15 53.4 °F 46.7 °F 30.10 in SE 7.0 mph 7.0 mph 78 % 0.00 in 109 W/m2
15:20 53.3 °F 47.0 °F 30.10 in SSE 6.0 mph 6.0 mph 79 % 0.00 in 120 W/m2
15:25 53.3 °F 47.0 °F 30.10 in SSE 4.0 mph 6.0 mph 79 % 0.00 in 158 W/m2
15:35 53.4 °F 47.0 °F 30.10 in South 4.0 mph 6.0 mph 79 % 0.00 in 258 W/m2
15:40 53.4 °F 47.0 °F 30.10 in South 5.0 mph 6.0 mph 79 % 0.00 in 130 W/m2
15:45 53.3 °F 47.0 °F 30.10 in SSW 4.0 mph 6.0 mph 79 % 0.00 in 223 W/m2
15:55 53.1 °F 47.1 °F 30.10 in South 4.0 mph 6.0 mph 80 % 0.00 in 63 W/m2
16:00 52.9 °F 46.9 °F 30.10 in SSE 3.0 mph 3.0 mph 80 % 0.00 in 63 W/m2
16:05 52.9 °F 46.9 °F 30.10 in SSE 1.0 mph 6.0 mph 80 % 0.00 in 62 W/m2
16:15 52.9 °F 46.9 °F 30.11 in WSW 1.0 mph 6.0 mph 80 % 0.00 in 58 W/m2
16:20 52.9 °F 46.9 °F 30.11 in SSW 3.0 mph 6.0 mph 80 % 0.00 in 47 W/m2
16:30 52.7 °F 47.0 °F 30.10 in SSW 5.0 mph 7.0 mph 81 % 0.00 in 53 W/m2
16:35 52.5 °F 46.8 °F 30.10 in South 7.0 mph 7.0 mph 81 % 0.00 in 49 W/m2
16:45 52.1 °F 46.4 °F 30.10 in SSW 4.0 mph 7.0 mph 81 % 0.00 in 28 W/m2
16:50 52.0 °F 46.7 °F 30.10 in SSE 3.0 mph 6.0 mph 82 % 0.00 in 26 W/m2
16:55 51.9 °F 46.6 °F 30.10 in SSE 2.0 mph 6.0 mph 82 % 0.00 in 19 W/m2
17:00 51.7 °F 46.4 °F 30.10 in SSE 2.0 mph 6.0 mph 82 % 0.00 in 16 W/m2
17:05 51.6 °F 46.3 °F 30.10 in SE 4.0 mph 6.0 mph 82 % 0.00 in 14 W/m2
17:15 51.3 °F 46.3 °F 30.10 in South 4.0 mph 6.0 mph 83 % 0.00 in 9 W/m2
17:20 51.1 °F 46.4 °F 30.10 in SE 4.0 mph 6.0 mph 84 % 0.00 in 7 W/m2
17:25 50.9 °F 46.2 °F 30.10 in SSE 4.0 mph 9.0 mph 84 % 0.00 in 7 W/m2
17:30 50.8 °F 46.1 °F 30.10 in South 4.0 mph 4.0 mph 84 % 0.00 in 0 W/m2
17:35 50.6 °F 45.9 °F 30.10 in SSW 3.0 mph 6.0 mph 84 % 0.00 in 0 W/m2
17:40 50.5 °F 46.2 °F 30.10 in SW 2.0 mph 7.0 mph 85 % 0.00 in 0 W/m2
17:45 50.4 °F 46.1 °F 30.10 in WSW 3.0 mph 7.0 mph 85 % 0.00 in 0 W/m2
17:55 50.2 °F 45.9 °F 30.10 in WSW 5.0 mph 7.0 mph 85 % 0.00 in 0 W/m2
18:00 50.2 °F 45.9 °F 30.10 in WSW 6.0 mph 9.0 mph 85 % 0.00 in 0 W/m2
18:05 50.1 °F 45.8 °F 30.10 in SW 7.0 mph 9.0 mph 85 % 0.00 in 0 W/m2
18:10 50.2 °F 45.9 °F 30.10 in SW 8.0 mph 8.0 mph 85 % 0.00 in 0 W/m2
18:20 50.2 °F 45.9 °F 30.10 in SW 9.0 mph 9.0 mph 85 % 0.00 in 0 W/m2
18:25 50.1 °F 45.8 °F 30.10 in SW 9.0 mph 9.0 mph 85 % 0.00 in 0 W/m2
18:30 50.0 °F 46.0 °F 30.10 in SW 7.0 mph 7.0 mph 86 % 0.00 in 0 W/m2
18:40 49.8 °F 45.8 °F 30.11 in SW 4.0 mph 6.0 mph 86 % 0.00 in 0 W/m2
18:45 49.7 °F 45.7 °F 30.11 in SW 4.0 mph 6.0 mph 86 % 0.00 in 0 W/m2
18:50 49.6 °F 45.6 °F 30.10 in SW 3.0 mph 3.0 mph 86 % 0.00 in 0 W/m2
18:55 49.5 °F 45.5 °F 30.10 in SW 2.0 mph 4.0 mph 86 % 0.00 in 0 W/m2
19:00 49.3 °F 45.6 °F 30.10 in WSW 3.0 mph 6.0 mph 87 % 0.00 in 0 W/m2
19:05 49.2 °F 45.5 °F 30.10 in WSW 5.0 mph 7.0 mph 87 % 0.00 in 0 W/m2
19:10 49.1 °F 45.4 °F 30.10 in SSW 6.0 mph 6.0 mph 87 % 0.00 in 0 W/m2
19:20 48.8 °F 45.4 °F 30.11 in WSW 6.0 mph 8.0 mph 88 % 0.00 in 0 W/m2
19:25 48.7 °F 45.3 °F 30.11 in WSW 6.0 mph 8.0 mph 88 % 0.00 in 0 W/m2
19:30 48.7 °F 45.3 °F 30.11 in WSW 6.0 mph 6.0 mph 88 % 0.00 in 0 W/m2
19:35 48.6 °F 45.2 °F 30.11 in WSW 5.0 mph 6.0 mph 88 % 0.00 in 0 W/m2
19:40 48.6 °F 45.2 °F 30.11 in WSW 5.0 mph 5.0 mph 88 % 0.00 in 0 W/m2
19:45 48.6 °F 45.5 °F 30.12 in West 4.0 mph 6.0 mph 89 % 0.00 in 0 W/m2
19:50 48.6 °F 45.5 °F 30.12 in WSW 3.0 mph 3.0 mph 89 % 0.00 in 0 W/m2
20:00 48.8 °F 45.7 °F 30.11 in WNW 6.0 mph 7.0 mph 89 % 0.00 in 0 W/m2
20:10 49.7 °F 46.0 °F 30.11 in WSW 9.0 mph 18.0 mph 87 % 0.00 in 0 W/m2
20:15 50.0 °F 46.0 °F 30.12 in WSW 10.0 mph 18.0 mph 86 % 0.00 in 0 W/m2
20:20 50.2 °F 45.9 °F 30.11 in WNW 11.0 mph 16.0 mph 85 % 0.00 in 0 W/m2
20:25 50.3 °F 46.0 °F 30.12 in West 11.0 mph 16.0 mph 85 % 0.00 in 0 W/m2
20:30 50.4 °F 45.7 °F 30.12 in WSW 10.0 mph 13.0 mph 84 % 0.00 in 0 W/m2
20:35 50.4 °F 45.7 °F 30.12 in West 11.0 mph 16.0 mph 84 % 0.00 in 0 W/m2
20:40 50.4 °F 45.7 °F 30.11 in WSW 12.0 mph 12.0 mph 84 % 0.00 in 0 W/m2
20:50 50.2 °F 45.9 °F 30.11 in WSW 13.0 mph 13.0 mph 85 % 0.00 in 0 W/m2
20:55 50.1 °F 45.8 °F 30.11 in WSW 12.0 mph 13.0 mph 85 % 0.00 in 0 W/m2
21:00 50.1 °F 46.1 °F 30.11 in WSW 10.0 mph 15.0 mph 86 % 0.00 in 0 W/m2
21:05 50.0 °F 46.0 °F 30.11 in SW 10.0 mph 15.0 mph 86 % 0.00 in 0 W/m2
21:10 50.0 °F 46.0 °F 30.11 in WSW 10.0 mph 11.0 mph 86 % 0.00 in 0 W/m2
21:15 50.0 °F 46.0 °F 30.11 in SW 10.0 mph 12.0 mph 86 % 0.00 in 0 W/m2
21:20 49.9 °F 45.9 °F 30.11 in SW 10.0 mph 10.0 mph 86 % 0.00 in 0 W/m2
21:30 49.8 °F 45.8 °F 30.11 in SW 9.0 mph 10.0 mph 86 % 0.00 in 0 W/m2
21:35 49.7 °F 45.7 °F 30.11 in WSW 9.0 mph 10.0 mph 86 % 0.00 in 0 W/m2
21:40 49.7 °F 45.7 °F 30.11 in WSW 9.0 mph 10.0 mph 86 % 0.00 in 0 W/m2
21:45 49.7 °F 45.7 °F 30.11 in WSW 9.0 mph 10.0 mph 86 % 0.00 in 0 W/m2
21:55 49.7 °F 45.7 °F 30.10 in SW 9.0 mph 14.0 mph 86 % 0.00 in 0 W/m2
22:00 49.7 °F 45.7 °F 30.10 in WSW 10.0 mph 11.0 mph 86 % 0.00 in 0 W/m2
22:10 49.7 °F 45.7 °F 30.09 in SW 9.0 mph 10.0 mph 86 % 0.00 in 0 W/m2
22:15 49.6 °F 45.6 °F 30.09 in WSW 10.0 mph 10.0 mph 86 % 0.00 in 0 W/m2
22:20 49.6 °F 45.6 °F 30.09 in SW 10.0 mph 10.0 mph 86 % 0.00 in 0 W/m2
22:25 49.4 °F 45.4 °F 30.08 in WSW 9.0 mph 14.0 mph 86 % 0.00 in 0 W/m2
22:30 49.3 °F 45.3 °F 30.08 in WSW 9.0 mph 9.0 mph 86 % 0.00 in 0 W/m2
22:35 49.2 °F 45.2 °F 30.08 in SW 9.0 mph 12.0 mph 86 % 0.00 in 0 W/m2
22:40 49.1 °F 45.1 °F 30.08 in WSW 9.0 mph 11.0 mph 86 % 0.00 in 0 W/m2
22:45 49.1 °F 45.1 °F 30.08 in SW 9.0 mph 11.0 mph 86 % 0.00 in 0 W/m2
22:55 49.0 °F 45.0 °F 30.07 in SW 8.0 mph 9.0 mph 86 % 0.00 in 0 W/m2
23:00 49.0 °F 45.0 °F 30.07 in SW 9.0 mph 9.0 mph 86 % 0.00 in 0 W/m2
23:05 49.1 °F 45.1 °F 30.07 in SW 9.0 mph 11.0 mph 86 % 0.00 in 0 W/m2
23:10 49.3 °F 45.3 °F 30.07 in SSW 10.0 mph 10.0 mph 86 % 0.00 in 0 W/m2
23:15 49.4 °F 45.4 °F 30.07 in West 10.0 mph 13.0 mph 86 % 0.00 in 0 W/m2
23:20 49.5 °F 45.5 °F 30.08 in WSW 9.0 mph 9.0 mph 86 % 0.00 in 0 W/m2
23:25 49.6 °F 45.6 °F 30.08 in WSW 8.0 mph 9.0 mph 86 % 0.00 in 0 W/m2
23:35 49.8 °F 45.5 °F 30.08 in SW 8.0 mph 16.0 mph 85 % 0.00 in 0 W/m2
23:45 50.0 °F 45.7 °F 30.08 in WSW 11.0 mph 14.0 mph 85 % 0.00 in 0 W/m2
23:50 50.0 °F 45.7 °F 30.07 in SW 10.0 mph 11.0 mph 85 % 0.00 in 0 W/m2
23:55 50.0 °F 45.7 °F 30.08 in WSW 9.0 mph 11.0 mph 85 % 0.00 in 0 W/m2
Delerius-Weather
Compliments of Weather Underground - 2 mb

Data updates at regular intervals.